Tropical Cyclones
[Index]
Main Index Home Page Stock Weather Photos Extreme Storms Discussion Storm News and Storm Chasing Reports Tropical Cyclones / Hurricanes / Typhoons Weather Data and Links Wild Fires / Bushfires Weather Observation Techniques Weather Picture Catalogue Tornado Pictures and Reports Stock Video Footage and DVDs for sale
Season 1985-1986 Tropical Cyclone NAMU Track Map
Season 1985-1986 Summaries: [BoM-AU] [JTWC-AU] [JTWC-SIO] [JTWC-SPAC] [JTWC-SH]
<<- Previous TC | BoM 1985-1986 Season | Next TC ->>

click for intensity scale information  Lat/long Grid: Show Hide

 Date Labels: Show Hide

Bureau of Meteorology Tropical Cyclone Data

Name: NAMU
Number: 694 / 198586_15

16 May 1986 18:00 UTC to 22 May 1986 00:00 UTC

    date/time    lat    long    hPa   cat  kts
1986-05-16 18    7.0   163.9   1000         25          
1986-05-17 00    7.4   164.1    999         25          
1986-05-17 06    7.8   164.0    997         30          
1986-05-17 12    8.2   163.5    995    1    35          
1986-05-17 18    8.6   163.0    992    1    40          
1986-05-18 00    8.9   162.5    988    1    45          
1986-05-18 06    9.1   162.0    984    2    45          
1986-05-18 12    9.4   161.4    980    2    50          
1986-05-18 18    9.7   160.8    976    2    50          
1986-05-19 00   10.1   160.1    973    2    55          
1986-05-19 06   10.6   159.5    969    3    60          
1986-05-19 12   11.1   159.1    966    3    65          
1986-05-19 18   12.0   158.9    965    3    65          
1986-05-20 00   12.8   158.7    963    3    70          
1986-05-20 06   13.4   158.4    961    3    70          
1986-05-20 12   14.2   158.3    960    3    70          
1986-05-20 18   15.4   158.8    964    3    70          
1986-05-21 00   16.6   159.6    972    2    65          
1986-05-21 06   17.3   160.8    988    1    55          
1986-05-21 12   17.6   162.1   1001         40          
1986-05-21 18   17.7   163.8   1008         30          
1986-05-22 00   18.4   165.4   1008         20          
Winds are 10-min average.

Tropical cyclone tracks developed by Michael Bath using data from the Bureau of Meteorology and Google Maps.


[Australian Severe Weather index] [Copyright Notice] [Email Contacts] [Search This Site] [Privacy Policy]
Document: tropical_cyclone_namu.htm Updated: 4 April 2018